createdAt,value
2018-01-25T18:35:27.238Z,12532
2018-01-25T18:35:40.288Z,12540
2018-01-25T18:35:53.363Z,12344
2018-01-25T18:36:06.026Z,12472
2018-01-25T18:36:18.177Z,12396
2018-01-25T18:36:30.774Z,12360
2018-01-25T18:36:43.352Z,12320
2018-01-25T18:36:56.463Z,12440
2018-01-25T18:37:08.123Z,12632
2018-01-25T18:37:21.181Z,12756
2018-01-25T18:37:34.262Z,12816
2018-01-25T18:37:46.851Z,12920
2018-01-25T18:37:59.928Z,13112
2018-01-25T18:38:12.493Z,13200
2018-01-25T18:38:25.691Z,13328
2018-01-25T18:38:38.810Z,13352
2018-01-25T18:38:51.482Z,13424
2018-01-25T18:39:04.544Z,13432
2018-01-25T18:39:17.131Z,13440
2018-01-25T18:39:30.208Z,13332
2018-01-25T18:39:43.299Z,13484
2018-01-25T18:39:55.908Z,13472
2018-01-25T18:40:08.557Z,13484
2018-01-25T18:40:21.545Z,13488
2018-01-25T18:40:34.228Z,13456
2018-01-25T18:40:46.865Z,13456
2018-01-25T18:40:59.419Z,13432
2018-01-25T18:41:11.969Z,13368
2018-01-25T18:41:25.104Z,13280
2018-01-25T18:41:37.688Z,13308
2018-01-25T18:41:49.852Z,13320
2018-01-25T18:42:02.494Z,13320
2018-01-25T18:42:14.205Z,13360
2018-01-25T18:42:27.224Z,13364
2018-01-25T18:42:39.406Z,13424
2018-01-25T18:42:52.015Z,13440
2018-01-25T18:43:04.090Z,13560
2018-01-25T18:43:16.748Z,13588
2018-01-25T18:43:29.397Z,13704
2018-01-25T18:43:41.985Z,13824
2018-01-25T18:43:55.059Z,14060
2018-01-25T18:44:07.646Z,14792
2018-01-25T18:44:19.736Z,16064
2018-01-25T18:44:32.816Z,16608
2018-01-25T18:44:44.897Z,16064
2018-01-25T18:44:57.939Z,15904
2018-01-25T18:45:10.637Z,15000
2018-01-25T18:45:22.233Z,14928
2018-01-25T18:45:34.900Z,14856
2018-01-25T18:45:47.555Z,14664
2018-01-25T18:46:00.166Z,14392
2018-01-25T18:46:13.207Z,14032
2018-01-25T18:46:25.817Z,13844
2018-01-25T18:46:38.848Z,13524
2018-01-25T18:46:51.952Z,13332
2018-01-25T18:47:04.619Z,13220
2018-01-25T18:47:16.810Z,13172
2018-01-25T18:47:29.380Z,13132
2018-01-25T18:47:42.316Z,13200
2018-01-25T18:47:54.448Z,13252
2018-01-25T18:48:06.587Z,13292
2018-01-25T18:48:19.682Z,13480
2018-01-25T18:48:32.344Z,13524
2018-01-25T18:48:45.394Z,13596
2018-01-25T18:48:58.448Z,13488
2018-01-25T18:49:11.470Z,13564
2018-01-25T18:49:24.577Z,13484
2018-01-25T18:49:37.653Z,13980
2018-01-25T18:49:49.770Z,14596
2018-01-25T18:50:02.369Z,14592
2018-01-25T18:50:14.559Z,14652
2018-01-25T18:50:26.259Z,14248
2018-01-25T18:50:39.415Z,13804
2018-01-25T18:50:51.605Z,13448
2018-01-25T18:51:02.778Z,13184
2018-01-25T18:51:14.945Z,12932
2018-01-25T18:51:27.534Z,12704
2018-01-25T18:51:40.670Z,12604
2018-01-25T18:51:53.758Z,12520
2018-01-25T18:52:06.453Z,12464
2018-01-25T18:52:19.137Z,12416
2018-01-25T18:52:32.225Z,12392
2018-01-25T18:52:45.311Z,12500
2018-01-25T18:52:57.451Z,12516
2018-01-25T18:53:10.663Z,12584
2018-01-25T18:53:23.216Z,12648
2018-01-25T18:53:36.310Z,12704
2018-01-25T18:53:49.336Z,12700
2018-01-25T18:54:02.337Z,12824
2018-01-25T18:54:14.905Z,12752
2018-01-25T18:54:27.471Z,12828
2018-01-25T18:54:40.484Z,12892
2018-01-25T18:54:53.128Z,12848
2018-01-25T18:55:05.731Z,12804
2018-01-25T18:55:17.801Z,12980
2018-01-25T18:55:30.428Z,13012
2018-01-25T18:55:43.064Z,12972
2018-01-25T18:55:55.647Z,12932
2018-01-25T18:56:08.815Z,12920
2018-01-25T18:56:21.954Z,12948
2018-01-25T18:56:35.025Z,13320
2018-01-25T18:56:48.131Z,13468
2018-01-25T18:57:01.292Z,13168
2018-01-25T18:57:13.935Z,13332
2018-01-25T18:57:27.148Z,13536
2018-01-25T18:57:39.302Z,13784
2018-01-25T18:57:52.348Z,13660
2018-01-25T18:58:04.937Z,13480
2018-01-25T18:58:17.555Z,13444
2018-01-25T18:58:30.621Z,13628
2018-01-25T18:58:43.353Z,13828
2018-01-25T18:58:56.519Z,14176
2018-01-25T18:59:09.657Z,14656
2018-01-25T18:59:22.274Z,14960
2018-01-25T18:59:34.884Z,15328
2018-01-25T18:59:48.096Z,15488
2018-01-25T19:00:01.251Z,15552
2018-01-25T19:00:13.872Z,15552
2018-01-25T19:00:27.030Z,15424
2018-01-25T19:00:40.202Z,15232
2018-01-25T19:00:52.911Z,15200
2018-01-25T19:01:05.038Z,15264
2018-01-25T19:01:17.279Z,15104
2018-01-25T19:01:29.986Z,14980
2018-01-25T19:01:43.221Z,14972
2018-01-25T19:01:55.463Z,14944
2018-01-25T19:02:08.194Z,14936
2018-01-25T19:02:20.358Z,14928
2018-01-25T19:02:32.690Z,14896
2018-01-25T19:02:46.046Z,14868
2018-01-25T19:02:59.118Z,14788
2018-01-25T19:03:11.793Z,14760
2018-01-25T19:03:24.912Z,14684
2018-01-25T19:03:38.145Z,14576
2018-01-25T19:03:51.262Z,14496
2018-01-25T19:04:03.846Z,14368
2018-01-25T19:04:16.480Z,14340
2018-01-25T19:04:29.148Z,14308
2018-01-25T19:04:42.295Z,14196
2018-01-25T19:04:54.944Z,14180
2018-01-25T19:05:08.143Z,14168
2018-01-25T19:05:20.359Z,14100
2018-01-25T19:05:33.497Z,14028
2018-01-25T19:05:46.141Z,13932
2018-01-25T19:05:59.270Z,13864
2018-01-25T19:06:12.492Z,13832
2018-01-25T19:06:24.703Z,13836
2018-01-25T19:06:37.934Z,13848
2018-01-25T19:06:51.199Z,13904
2018-01-25T19:07:04.381Z,13980
2018-01-25T19:07:17.641Z,14060
2018-01-25T19:07:30.866Z,14116
2018-01-25T19:07:43.972Z,14184
2018-01-25T19:07:56.602Z,14256
2018-01-25T19:08:09.370Z,14312
2018-01-25T19:08:22.064Z,14356
2018-01-25T19:08:35.297Z,14416
2018-01-25T19:08:48.518Z,14484
2018-01-25T19:09:01.206Z,14540
2018-01-25T19:09:13.981Z,14588
2018-01-25T19:09:26.721Z,14628
2018-01-25T19:09:38.515Z,14648
2018-01-25T19:09:51.777Z,14660
2018-01-25T19:10:04.963Z,14648
2018-01-25T19:10:17.761Z,14644
2018-01-25T19:10:30.504Z,14616
2018-01-25T19:10:43.716Z,14672
2018-01-25T19:10:56.884Z,14660
2018-01-25T19:11:08.672Z,14640
2018-01-25T19:11:21.928Z,14608
2018-01-25T19:11:34.731Z,14616
2018-01-25T19:11:47.429Z,14636
2018-01-25T19:11:59.632Z,14644
2018-01-25T19:12:12.464Z,14636
2018-01-25T19:12:25.667Z,14612
2018-01-25T19:12:38.850Z,14596
2018-01-25T19:12:52.092Z,14544
2018-01-25T19:13:04.782Z,14464
2018-01-25T19:13:17.479Z,14368
2018-01-25T19:13:29.653Z,14296
2018-01-25T19:13:42.363Z,14232
2018-01-25T19:13:55.538Z,14212
2018-01-25T19:14:08.331Z,14212
2018-01-25T19:14:21.046Z,14156
2018-01-25T19:14:33.757Z,14076
2018-01-25T19:14:46.901Z,13980
2018-01-25T19:15:00.151Z,13884
2018-01-25T19:15:12.846Z,13748
2018-01-25T19:15:25.095Z,13664
2018-01-25T19:15:38.269Z,13552
2018-01-25T19:15:51.004Z,13460
2018-01-25T19:16:03.719Z,13368
2018-01-25T19:16:15.920Z,13352
2018-01-25T19:16:29.098Z,13348
2018-01-25T19:16:41.848Z,13344
2018-01-25T19:16:54.956Z,13320
2018-01-25T19:17:07.155Z,13320
2018-01-25T19:17:20.286Z,13320
2018-01-25T19:17:33.495Z,13308
2018-01-25T19:17:46.137Z,13312
2018-01-25T19:17:59.675Z,13352
2018-01-25T19:18:11.895Z,13372
2018-01-25T19:18:25.023Z,13432
2018-01-25T19:18:37.766Z,13556
2018-01-25T19:18:50.973Z,13616
2018-01-25T19:19:03.700Z,13688
2018-01-25T19:19:16.402Z,13784
2018-01-25T19:19:29.083Z,13804
2018-01-25T19:19:42.180Z,13864
2018-01-25T19:19:55.321Z,13864
2018-01-25T19:20:08.482Z,13748
2018-01-25T19:20:21.551Z,13592
2018-01-25T19:20:34.674Z,13456
2018-01-25T19:20:47.863Z,13336
2018-01-25T19:21:00.967Z,13292
2018-01-25T19:21:13.617Z,13168
2018-01-25T19:21:26.313Z,13148
2018-01-25T19:21:39.429Z,13076
2018-01-25T19:21:52.141Z,13060
2018-01-25T19:22:04.376Z,13056
2018-01-25T19:22:16.568Z,13052
2018-01-25T19:22:29.681Z,13012
2018-01-25T19:22:42.397Z,12960
2018-01-25T19:22:54.143Z,12924
2018-01-25T19:23:07.416Z,12884
2018-01-25T19:23:19.547Z,12888
2018-01-25T19:23:31.748Z,12920
2018-01-25T19:23:43.035Z,12952
2018-01-25T19:23:55.661Z,13044
2018-01-25T19:24:07.816Z,13136
2018-01-25T19:24:21.026Z,13248
2018-01-25T19:24:33.742Z,13348
2018-01-25T19:24:45.943Z,13456
2018-01-25T19:24:59.086Z,13580
2018-01-25T19:25:11.726Z,13656
2018-01-25T19:25:23.925Z,13728
2018-01-25T19:25:36.238Z,13804
2018-01-25T19:25:48.923Z,13872
2018-01-25T19:26:01.590Z,13972
2018-01-25T19:26:14.290Z,14064
2018-01-25T19:26:27.440Z,14236
2018-01-25T19:26:40.189Z,14380
2018-01-25T19:26:53.424Z,14500
2018-01-25T19:27:06.728Z,14688
2018-01-25T19:27:19.024Z,14828
2018-01-25T19:27:32.243Z,15072
2018-01-25T19:27:45.514Z,15296
2018-01-25T19:27:58.342Z,15392
2018-01-25T19:28:11.124Z,13900
2018-01-25T19:28:24.407Z,15456
2018-01-25T19:28:37.117Z,15776
2018-01-25T19:28:50.250Z,15968
2018-01-25T19:29:02.948Z,16160
2018-01-25T19:29:15.630Z,16416
2018-01-25T19:29:28.812Z,16672
2018-01-25T19:29:42.010Z,16896
2018-01-25T19:29:54.668Z,16960
2018-01-25T19:30:07.378Z,16960
2018-01-25T19:30:20.175Z,16768
2018-01-25T19:30:33.393Z,16544
2018-01-25T19:30:46.117Z,16320
2018-01-25T19:30:58.806Z,16096
2018-01-25T19:31:11.460Z,15936
2018-01-25T19:31:24.033Z,15520
2018-01-25T19:31:37.079Z,14160
2018-01-25T19:31:50.306Z,13324
2018-01-25T19:32:03.425Z,13108
2018-01-25T19:32:16.122Z,12892
2018-01-25T19:32:28.753Z,12728
2018-01-25T19:32:41.337Z,12588
2018-01-25T19:32:54.312Z,12480
2018-01-25T19:33:07.421Z,12492
2018-01-25T19:33:19.471Z,12716
2018-01-25T19:33:31.647Z,12456
2018-01-25T19:33:44.887Z,12316
2018-01-25T19:33:57.944Z,12360
2018-01-25T19:34:10.096Z,12200
2018-01-25T19:34:22.661Z,12620
2018-01-25T19:34:35.199Z,12396
2018-01-25T19:34:48.221Z,13092
2018-01-25T19:35:01.248Z,13004
2018-01-25T19:35:14.319Z,12916
2018-01-25T19:35:26.941Z,12780
2018-01-25T19:35:40.043Z,11304
2018-01-25T19:35:53.148Z,11032
2018-01-25T19:36:06.280Z,11260
2018-01-25T19:36:18.943Z,11116
2018-01-25T19:36:31.512Z,12328
2018-01-25T19:36:44.095Z,11044
2018-01-25T19:36:57.133Z,10928
2018-01-25T19:37:10.261Z,12528
2018-01-25T19:37:23.319Z,12432
2018-01-25T19:37:36.323Z,12008
2018-01-25T19:37:48.940Z,11176
2018-01-25T19:38:01.470Z,12124
2018-01-25T19:38:14.505Z,11116
2018-01-25T19:38:27.512Z,11040
2018-01-25T19:38:40.083Z,10964
2018-01-25T19:38:52.636Z,10828
2018-01-25T19:39:05.176Z,10576
2018-01-25T19:39:17.286Z,10284
2018-01-25T19:39:29.430Z,9980
2018-01-25T19:39:42.516Z,9752
2018-01-25T19:39:55.579Z,10136
2018-01-25T19:40:07.719Z,9552
2018-01-25T19:40:19.825Z,9524
2018-01-25T19:40:32.900Z,9508
2018-01-25T19:40:45.976Z,9592
2018-01-25T19:40:59.129Z,9612
2018-01-25T19:41:11.766Z,9588
2018-01-25T19:41:24.790Z,9476
2018-01-25T19:41:37.356Z,9280
2018-01-25T19:41:49.925Z,9036
2018-01-25T19:42:02.518Z,8852
2018-01-25T19:42:14.605Z,8716
2018-01-25T19:42:27.656Z,8484
2018-01-25T19:42:40.759Z,8256
2018-01-25T19:42:53.386Z,8052
2018-01-25T19:43:06.012Z,7864
2018-01-25T19:43:19.023Z,7720
2018-01-25T19:43:32.083Z,7612
2018-01-25T19:43:45.206Z,7552
2018-01-25T19:43:58.194Z,7528
2018-01-25T19:44:10.504Z,7532
2018-01-25T19:44:22.615Z,7536
2018-01-25T19:44:35.202Z,7524
2018-01-25T19:44:48.314Z,7488
2018-01-25T19:45:00.904Z,7424
2018-01-25T19:45:14.083Z,7388
2018-01-25T19:45:26.187Z,7356
2018-01-25T19:45:37.860Z,7336
2018-01-25T19:45:50.528Z,7336
2018-01-25T19:46:03.521Z,7372
2018-01-25T19:46:16.161Z,7424
2018-01-25T19:46:28.776Z,7488
2018-01-25T19:46:41.535Z,7568
2018-01-25T19:46:54.568Z,7648
2018-01-25T19:47:06.662Z,7756
2018-01-25T19:47:18.820Z,7884
2018-01-25T19:47:31.861Z,8008
2018-01-25T19:47:44.916Z,8060
2018-01-25T19:47:57.961Z,8048
2018-01-25T19:48:10.987Z,8016
2018-01-25T19:48:23.579Z,7964
2018-01-25T19:48:36.681Z,7888
2018-01-25T19:48:49.310Z,7848
2018-01-25T19:49:01.926Z,7848
2018-01-25T19:49:14.994Z,7840
2018-01-25T19:49:27.139Z,7812
2018-01-25T19:49:40.205Z,7776
2018-01-25T19:49:52.315Z,7700
2018-01-25T19:50:05.379Z,7592
2018-01-25T19:50:18.011Z,7444
2018-01-25T19:50:31.172Z,7232
2018-01-25T19:50:44.188Z,7032
2018-01-25T19:50:56.793Z,6876
2018-01-25T19:51:08.489Z,6932
2018-01-25T19:51:21.023Z,6852
2018-01-25T19:51:33.120Z,6852
2018-01-25T19:51:46.162Z,6720
2018-01-25T19:51:59.272Z,6556
2018-01-25T19:52:10.991Z,6424
2018-01-25T19:52:23.560Z,6288
2018-01-25T19:52:36.646Z,6140
2018-01-25T19:52:49.274Z,5976
2018-01-25T19:53:01.879Z,5828
2018-01-25T19:53:14.933Z,5728
2018-01-25T19:53:27.984Z,5716
2018-01-25T19:53:40.527Z,5704
2018-01-25T19:53:53.643Z,5616
2018-01-25T19:54:06.318Z,5552
2018-01-25T19:54:18.453Z,5496
2018-01-25T19:54:31.066Z,5412
2018-01-25T19:54:43.214Z,5344
2018-01-25T19:54:56.257Z,5288
2018-01-25T19:55:09.344Z,5236
2018-01-25T19:55:22.478Z,5184
2018-01-25T19:55:35.090Z,5132
2018-01-25T19:55:48.179Z,5108
2018-01-25T19:56:00.307Z,5100
2018-01-25T19:56:12.926Z,5088
2018-01-25T19:56:25.916Z,5060
2018-01-25T19:56:38.963Z,5008
2018-01-25T19:56:51.612Z,4952
2018-01-25T19:57:03.768Z,4912
2018-01-25T19:57:16.823Z,4864
2018-01-25T19:57:29.897Z,4772
2018-01-25T19:57:41.563Z,4652
2018-01-25T19:57:54.173Z,4488
2018-01-25T19:58:06.780Z,4332
2018-01-25T19:58:19.819Z,4224
2018-01-25T19:58:32.889Z,4156
2018-01-25T19:58:45.975Z,4104
2018-01-25T19:58:59.094Z,4064
2018-01-25T19:59:12.096Z,4016
2018-01-25T19:59:24.214Z,3968
2018-01-25T19:59:35.949Z,3940
2018-01-25T19:59:48.094Z,3940
2018-01-25T19:59:59.742Z,3948
2018-01-25T20:00:11.842Z,3936
2018-01-25T20:00:23.866Z,3920
2018-01-25T20:00:36.505Z,3924
2018-01-25T20:00:48.651Z,3956
2018-01-25T20:01:00.764Z,4008
2018-01-25T20:01:12.830Z,4088
2018-01-25T20:01:25.305Z,4168
2018-01-25T20:01:38.303Z,4260
2018-01-25T20:01:51.379Z,4344
2018-01-25T20:02:03.521Z,4396
2018-01-25T20:02:16.136Z,4420
2018-01-25T20:02:28.695Z,4436
2018-01-25T20:02:41.732Z,4464
2018-01-25T20:02:54.771Z,4488
2018-01-25T20:03:06.639Z,4496
2018-01-25T20:03:19.183Z,4484
2018-01-25T20:03:31.330Z,4460
2018-01-25T20:03:44.483Z,4436
2018-01-25T20:03:57.019Z,4424
2018-01-25T20:04:09.620Z,4420
2018-01-25T20:04:22.290Z,4404
2018-01-25T20:04:35.374Z,4376
2018-01-25T20:04:48.475Z,4344
2018-01-25T20:05:01.530Z,4292
2018-01-25T20:05:14.199Z,4212
2018-01-25T20:05:27.284Z,4104
2018-01-25T20:05:39.850Z,4020
2018-01-25T20:05:52.919Z,3952
2018-01-25T20:06:05.533Z,3904
2018-01-25T20:06:17.689Z,3860
2018-01-25T20:06:30.782Z,3800
2018-01-25T20:06:43.374Z,3740
2018-01-25T20:06:55.920Z,3708
2018-01-25T20:07:08.942Z,3700
2018-01-25T20:07:21.590Z,3728
2018-01-25T20:07:33.685Z,3760
2018-01-25T20:07:46.254Z,3808
2018-01-25T20:07:58.403Z,3848
2018-01-25T20:08:11.513Z,3896
2018-01-25T20:08:24.551Z,3964
2018-01-25T20:08:37.250Z,4024
2018-01-25T20:08:49.415Z,4064
2018-01-25T20:09:01.539Z,4108
2018-01-25T20:09:14.218Z,4180
2018-01-25T20:09:26.372Z,4264
2018-01-25T20:09:38.901Z,4372
2018-01-25T20:09:51.505Z,4492
2018-01-25T20:10:04.632Z,4624
2018-01-25T20:10:17.684Z,4760
2018-01-25T20:10:30.723Z,4888
2018-01-25T20:10:43.382Z,5000
2018-01-25T20:10:56.442Z,5120
2018-01-25T20:11:08.941Z,5244
2018-01-25T20:11:21.575Z,5396
2018-01-25T20:11:34.279Z,5544
2018-01-25T20:11:47.383Z,5688
2018-01-25T20:11:59.973Z,5792
2018-01-25T20:12:12.023Z,5840
2018-01-25T20:12:25.051Z,5820
2018-01-25T20:12:37.553Z,5736
2018-01-25T20:12:50.669Z,5616
2018-01-25T20:13:03.267Z,5452
2018-01-25T20:13:15.409Z,5236
2018-01-25T20:13:28.044Z,4984
2018-01-25T20:13:41.135Z,4696
2018-01-25T20:13:53.771Z,4412
2018-01-25T20:14:05.983Z,4132
2018-01-25T20:14:18.607Z,3864
2018-01-25T20:14:31.699Z,3624
2018-01-25T20:14:44.330Z,3468
2018-01-25T20:14:57.392Z,3344
2018-01-25T20:15:10.003Z,3252
2018-01-25T20:15:22.174Z,3188
2018-01-25T20:15:34.754Z,3152
2018-01-25T20:15:47.895Z,3148
2018-01-25T20:16:00.889Z,3172
2018-01-25T20:16:13.999Z,3220
2018-01-25T20:16:27.031Z,3292
2018-01-25T20:16:40.153Z,3384
2018-01-25T20:16:52.768Z,3480
2018-01-25T20:17:05.871Z,3556
2018-01-25T20:17:17.613Z,3592
2018-01-25T20:17:30.244Z,3588
2018-01-25T20:17:43.262Z,3576
2018-01-25T20:17:56.367Z,3580
2018-01-25T20:18:09.446Z,3592
2018-01-25T20:18:22.209Z,3608
2018-01-25T20:18:34.797Z,3648
2018-01-25T20:18:47.881Z,3732
2018-01-25T20:19:00.001Z,3836
2018-01-25T20:19:12.095Z,3940
2018-01-25T20:19:24.655Z,4036
2018-01-25T20:19:36.746Z,4096
2018-01-25T20:19:48.418Z,4124
2018-01-25T20:20:01.507Z,4124
2018-01-25T20:20:14.635Z,4104
2018-01-25T20:20:27.661Z,4072
2018-01-25T20:20:40.826Z,4032
2018-01-25T20:20:53.911Z,3972
2018-01-25T20:21:06.952Z,3912
2018-01-25T20:21:20.015Z,3880
2018-01-25T20:21:32.567Z,3856
2018-01-25T20:21:45.137Z,3836
2018-01-25T20:21:57.717Z,3820
2018-01-25T20:22:10.843Z,3800
2018-01-25T20:22:22.432Z,3784
2018-01-25T20:22:35.043Z,3772
2018-01-25T20:22:47.634Z,3772
2018-01-25T20:23:00.716Z,3784
2018-01-25T20:23:14.033Z,3796
2018-01-25T20:23:27.059Z,3792
2018-01-25T20:23:40.209Z,3764
2018-01-25T20:23:53.339Z,3712
2018-01-25T20:24:06.364Z,3636
2018-01-25T20:24:17.503Z,3564
2018-01-25T20:24:30.485Z,3476
2018-01-25T20:24:43.512Z,3408
2018-01-25T20:24:56.534Z,3372
2018-01-25T20:25:09.613Z,3376
2018-01-25T20:25:21.297Z,3420
2018-01-25T20:25:34.354Z,3488
2018-01-25T20:25:46.878Z,3552
2018-01-25T20:25:58.951Z,3592
2018-01-25T20:26:12.019Z,3596
2018-01-25T20:26:25.095Z,3536
2018-01-25T20:26:37.627Z,3432
2018-01-25T20:26:50.737Z,3292
2018-01-25T20:27:03.769Z,3156
2018-01-25T20:27:16.361Z,3024
2018-01-25T20:27:28.502Z,2916
2018-01-25T20:27:41.568Z,2812
2018-01-25T20:27:54.662Z,2736
2018-01-25T20:28:07.846Z,2688
2018-01-25T20:28:19.993Z,2660
2018-01-25T20:28:32.549Z,2644
2018-01-25T20:28:44.629Z,2616
2018-01-25T20:28:57.218Z,2568
2018-01-25T20:29:10.272Z,2508
2018-01-25T20:29:23.367Z,2448
2018-01-25T20:29:36.455Z,2388
2018-01-25T20:29:49.513Z,2348
2018-01-25T20:30:02.118Z,2324
2018-01-25T20:30:14.660Z,2332
2018-01-25T20:30:26.829Z,2340
2018-01-25T20:30:39.434Z,2356
2018-01-25T20:30:52.494Z,2384
2018-01-25T20:31:04.114Z,2408
2018-01-25T20:31:16.302Z,2408
2018-01-25T20:31:28.450Z,2372
2018-01-25T20:31:41.498Z,2292
2018-01-25T20:31:53.602Z,2188
2018-01-25T20:32:06.770Z,2072
2018-01-25T20:32:19.495Z,1964
2018-01-25T20:32:31.580Z,1864
2018-01-25T20:32:44.174Z,1776
2018-01-25T20:32:56.348Z,1692
2018-01-25T20:33:08.980Z,1612
2018-01-25T20:33:22.610Z,1536
2018-01-25T20:33:34.778Z,1476
2018-01-25T20:33:47.381Z,1428
2018-01-25T20:33:59.933Z,1388
2018-01-25T20:34:12.606Z,1356
2018-01-25T20:34:24.803Z,1332
2018-01-25T20:34:37.410Z,1308
2018-01-25T20:34:49.561Z,1284
2018-01-25T20:35:02.642Z,1260
2018-01-25T20:35:14.766Z,1252
2018-01-25T20:35:27.341Z,1240
2018-01-25T20:35:39.079Z,1244
2018-01-25T20:35:51.192Z,1252
2018-01-25T20:36:04.234Z,1260
2018-01-25T20:36:16.414Z,1264
2018-01-25T20:36:29.414Z,1264
2018-01-25T20:36:42.517Z,1248
2018-01-25T20:36:55.119Z,1224
2018-01-25T20:37:08.118Z,1200
2018-01-25T20:37:20.257Z,1172
2018-01-25T20:37:32.797Z,1140
2018-01-25T20:37:45.845Z,1112
2018-01-25T20:37:59.017Z,1088
2018-01-25T20:38:12.148Z,1076
2018-01-25T20:38:25.257Z,1076
2018-01-25T20:38:38.265Z,1080
2018-01-25T20:38:50.846Z,1092
2018-01-25T20:39:03.486Z,1112
2018-01-25T20:39:16.030Z,1128
2018-01-25T20:39:29.035Z,1144
2018-01-25T20:39:42.161Z,1164
2018-01-25T20:39:55.231Z,1176
2018-01-25T20:40:08.287Z,1188
2018-01-25T20:40:20.404Z,1196
2018-01-25T20:40:33.602Z,1200
2018-01-25T20:40:46.201Z,1208
2018-01-25T20:40:59.275Z,1228
2018-01-25T20:41:12.275Z,1260
2018-01-25T20:41:25.388Z,1304
2018-01-25T20:41:38.501Z,1356
2018-01-25T20:41:51.203Z,1408
2018-01-25T20:42:04.222Z,1464
2018-01-25T20:42:16.433Z,1508
2018-01-25T20:42:28.980Z,1548
2018-01-25T20:42:41.636Z,1580
2018-01-25T20:42:54.736Z,1608
2018-01-25T20:43:07.782Z,1644
2018-01-25T20:43:20.433Z,1680
2018-01-25T20:43:32.114Z,1720
2018-01-25T20:43:44.672Z,1752
2018-01-25T20:43:57.290Z,1764
2018-01-25T20:44:09.940Z,1768
2018-01-25T20:44:22.622Z,1776
2018-01-25T20:44:35.234Z,1788
2018-01-25T20:44:47.402Z,1820
2018-01-25T20:45:00.082Z,1860
2018-01-25T20:45:12.194Z,1904
2018-01-25T20:45:23.878Z,1952
2018-01-25T20:45:36.467Z,2008
2018-01-25T20:45:49.482Z,2068
2018-01-25T20:46:02.605Z,2116
2018-01-25T20:46:15.593Z,2136
2018-01-25T20:46:28.216Z,2120
2018-01-25T20:46:40.383Z,2076
2018-01-25T20:46:53.477Z,2008
2018-01-25T20:47:06.550Z,1936
2018-01-25T20:47:19.655Z,1868
2018-01-25T20:47:32.228Z,1808
2018-01-25T20:47:44.777Z,1736
2018-01-25T20:47:57.772Z,1668
2018-01-25T20:48:10.928Z,1588
2018-01-25T20:48:24.001Z,1516
2018-01-25T20:48:36.575Z,1452
2018-01-25T20:48:49.658Z,1400
2018-01-25T20:49:02.323Z,1348
2018-01-25T20:49:15.333Z,1308
2018-01-25T20:49:26.989Z,1276
2018-01-25T20:49:40.027Z,1244
2018-01-25T20:49:53.161Z,1212
2018-01-25T20:50:05.884Z,1192
2018-01-25T20:50:18.447Z,1172
2018-01-25T20:50:31.496Z,1148
2018-01-25T20:50:44.557Z,1120
2018-01-25T20:50:57.587Z,1100
2018-01-25T20:51:09.685Z,1084
2018-01-25T20:51:21.826Z,1072
2018-01-25T20:51:34.923Z,1056
2018-01-25T20:51:47.488Z,1036
2018-01-25T20:51:59.653Z,1028
2018-01-25T20:52:11.724Z,1020
2018-01-25T20:52:24.361Z,1016
2018-01-25T20:52:36.498Z,1012
2018-01-25T20:52:50.570Z,996
2018-01-25T20:53:03.738Z,980
2018-01-25T20:53:16.844Z,960
2018-01-25T20:53:28.582Z,948
2018-01-25T20:53:41.539Z,940
2018-01-25T20:53:54.611Z,940
2018-01-25T20:54:07.644Z,944
2018-01-25T20:54:20.227Z,948
2018-01-25T20:54:32.766Z,952
2018-01-25T20:54:45.827Z,960
2018-01-25T20:54:58.850Z,964
2018-01-25T20:55:12.012Z,972
2018-01-25T20:55:25.069Z,976
2018-01-25T20:55:37.676Z,976
2018-01-25T20:55:50.898Z,976
2018-01-25T20:56:03.469Z,988
2018-01-25T20:56:16.490Z,1008
2018-01-25T20:56:29.533Z,1032
2018-01-25T20:56:42.635Z,1060
2018-01-25T20:56:55.208Z,1088
2018-01-25T20:57:07.808Z,1112
2018-01-25T20:57:20.882Z,1136
2018-01-25T20:57:33.528Z,1160
2018-01-25T20:57:46.573Z,1192
2018-01-25T20:57:59.578Z,1232
2018-01-25T20:58:12.180Z,1284
2018-01-25T20:58:24.378Z,1328
2018-01-25T20:58:37.008Z,1360
2018-01-25T20:58:49.745Z,1388
2018-01-25T20:59:02.862Z,1420
2018-01-25T20:59:15.434Z,1448
2018-01-25T20:59:27.527Z,1488
2018-01-25T20:59:40.095Z,1532
2018-01-25T20:59:52.717Z,1580
2018-01-25T21:00:05.311Z,1632
2018-01-25T21:00:17.915Z,1672
2018-01-25T21:00:30.542Z,1712
2018-01-25T21:00:43.596Z,1756
2018-01-25T21:00:55.714Z,1792
2018-01-25T21:01:08.246Z,1816
2018-01-25T21:01:21.268Z,1848
2018-01-25T21:01:33.875Z,1904
2018-01-25T21:01:46.960Z,1984
2018-01-25T21:02:00.026Z,2076
2018-01-25T21:02:12.122Z,2156
2018-01-25T21:02:24.679Z,2236
2018-01-25T21:02:37.361Z,2320
2018-01-25T21:02:49.026Z,2388
2018-01-25T21:03:02.090Z,2468
2018-01-25T21:03:14.292Z,2544
2018-01-25T21:03:26.889Z,2612
2018-01-25T21:03:40.006Z,2672
2018-01-25T21:03:52.700Z,2700
2018-01-25T21:04:05.790Z,2696
2018-01-25T21:04:18.403Z,2680
2018-01-25T21:04:30.573Z,2668
2018-01-25T21:04:43.219Z,2668
2018-01-25T21:04:55.324Z,2680
2018-01-25T21:05:07.983Z,2680
2018-01-25T21:05:20.582Z,2656
2018-01-25T21:05:33.179Z,2604
2018-01-25T21:05:46.362Z,2572
2018-01-25T21:05:58.049Z,2560
2018-01-25T21:06:11.102Z,2568
2018-01-25T21:06:23.758Z,2580
2018-01-25T21:06:36.376Z,2600
2018-01-25T21:06:49.024Z,2620
2018-01-25T21:07:02.059Z,2636
2018-01-25T21:07:14.637Z,2632
2018-01-25T21:07:27.657Z,2616
2018-01-25T21:07:40.799Z,2592
2018-01-25T21:07:53.788Z,2564
2018-01-25T21:08:06.864Z,2560
2018-01-25T21:08:19.036Z,2548
2018-01-25T21:08:31.689Z,2532
2018-01-25T21:08:43.839Z,2524
2018-01-25T21:08:55.974Z,2524
2018-01-25T21:09:08.063Z,2540
2018-01-25T21:09:21.088Z,2568
2018-01-25T21:09:34.176Z,2600
2018-01-25T21:09:46.822Z,2632
2018-01-25T21:09:59.929Z,2664
2018-01-25T21:10:12.768Z,2684
2018-01-25T21:10:25.800Z,2676
2018-01-25T21:10:38.485Z,2640
2018-01-25T21:10:50.591Z,2616
2018-01-25T21:11:02.314Z,2600
2018-01-25T21:11:15.330Z,2584
2018-01-25T21:11:28.438Z,2560
2018-01-25T21:11:40.660Z,2524
2018-01-25T21:11:53.741Z,2480
2018-01-25T21:12:06.809Z,2452
2018-01-25T21:12:19.864Z,2436
2018-01-25T21:12:32.966Z,2452
2018-01-25T21:12:45.609Z,2460
2018-01-25T21:12:58.239Z,2448
2018-01-25T21:13:10.904Z,2424
2018-01-25T21:13:23.942Z,2392
2018-01-25T21:13:37.049Z,2360
2018-01-25T21:13:49.688Z,2320
2018-01-25T21:14:01.346Z,2300
2018-01-25T21:14:14.174Z,2292
2018-01-25T21:14:26.854Z,2284
2018-01-25T21:14:39.420Z,2268
2018-01-25T21:14:52.208Z,2244
2018-01-25T21:15:05.261Z,2196
2018-01-25T21:15:17.846Z,2160
2018-01-25T21:15:30.926Z,2124
2018-01-25T21:15:43.036Z,2108
2018-01-25T21:15:55.651Z,2092
2018-01-25T21:16:08.658Z,2068
2018-01-25T21:16:21.753Z,2036
2018-01-25T21:16:34.323Z,2012
2018-01-25T21:16:47.362Z,2000
2018-01-25T21:16:59.931Z,2008
2018-01-25T21:17:13.077Z,2032
2018-01-25T21:17:26.151Z,2064
2018-01-25T21:17:38.257Z,2084
2018-01-25T21:17:50.809Z,2100
2018-01-25T21:18:03.830Z,2124
2018-01-25T21:18:16.412Z,2140
2018-01-25T21:18:29.482Z,2172
2018-01-25T21:18:42.801Z,2204
2018-01-25T21:18:54.944Z,2236
2018-01-25T21:19:07.038Z,2264
2018-01-25T21:19:19.652Z,2300
2018-01-25T21:19:32.849Z,2332
2018-01-25T21:19:45.490Z,2344
2018-01-25T21:19:58.638Z,2340
2018-01-25T21:20:11.226Z,2300
2018-01-25T21:20:24.338Z,2264
2018-01-25T21:20:37.418Z,2208
2018-01-25T21:20:49.980Z,2152
2018-01-25T21:21:02.596Z,2088
2018-01-25T21:21:14.242Z,2024
2018-01-25T21:21:27.321Z,1956
2018-01-25T21:21:40.369Z,1900
2018-01-25T21:21:52.524Z,1864
2018-01-25T21:22:05.185Z,1848
2018-01-25T21:22:17.295Z,1856
2018-01-25T21:22:30.523Z,1868